South Chatham, New Hampshire
Current Conditions -  °F | °C
As of 12:54 PM on Monday 22 Dec 2014 (Local Time) from KIZG Reporting Station
Overcast Overcast  
Wind Chill: 33°   Ceiling: 4300
Heat Index: 33°   Visibility: 10mi
Dew Point: 24°   Wind: 0mph
Humidity: 70%   Direction: NA
Pressure: 30.36"   Gusts: NA
Location:  43.9597°N, 71.0453°W
Report Text: KIZG 221754Z AUTO 00000KT 10SM OVC043 01/M04 A3036 RMK AO2 SLP288 T00061044 10006 21039 58019
Loading
Personal Weather Stations






























Interactive Weather Map New forecast layout! Learn more

10-Day Weather Forecast

Advertisements
Track Severe Weather on mobile